createdAt,value
2023-03-05T21:46:15.914Z,100095.28
2023-03-05T21:48:42.872Z,100094.63
2023-03-05T21:51:11.461Z,100091.97
2023-03-05T21:53:41.316Z,100087.59
2023-03-05T21:56:18.402Z,100082.53
2023-03-05T21:58:45.294Z,100087.81
2023-03-05T22:01:13.138Z,100084.38
2023-03-05T22:03:40.205Z,100079.94
2023-03-05T22:06:17.865Z,100079.31
2023-03-05T22:08:45.370Z,100074.25
2023-03-05T22:11:16.779Z,100064.28
2023-03-05T22:13:44.110Z,100056.81
2023-03-05T22:16:12.132Z,100058.03
2023-03-05T22:18:39.045Z,100061.63
2023-03-05T22:21:16.573Z,100051.38
2023-03-05T22:23:43.413Z,100047.22
2023-03-05T22:26:10.312Z,100049.13
2023-03-05T22:28:38.876Z,100039.63
2023-03-05T22:31:06.495Z,100037.66
2023-03-05T22:33:33.342Z,100032.88
2023-03-05T22:36:00.313Z,100025.03
2023-03-05T22:38:27.230Z,100019.84
2023-03-05T22:40:54.773Z,100018.06
2023-03-05T22:43:21.981Z,100020.88
2023-03-05T22:45:49.224Z,100019.19
2023-03-05T22:48:16.126Z,100018.19
2023-03-05T22:50:46.855Z,100007.19
2023-03-05T22:53:13.743Z,100009.69
2023-03-05T22:55:41.873Z,100008.22
2023-03-05T22:58:09.056Z,99999.72
2023-03-05T23:00:35.981Z,100000.53
2023-03-05T23:03:02.980Z,99994.69
2023-03-05T23:05:29.844Z,99988.25
2023-03-05T23:07:56.702Z,99993.59
2023-03-05T23:10:27.233Z,99983.53
2023-03-05T23:12:56.679Z,99981.06
2023-03-05T23:15:27.065Z,99980.31
2023-03-05T23:17:54.395Z,99980.31
2023-03-05T23:20:28.279Z,99976.31
2023-03-05T23:22:56.312Z,99971.25
2023-03-05T23:25:26.993Z,99966.19
2023-03-05T23:27:54.858Z,99965.44
2023-03-05T23:30:27.092Z,99966.28
2023-03-05T23:33:00.403Z,99971.25
2023-03-05T23:35:32.671Z,99976.16
2023-03-05T23:38:02.412Z,99966.91
2023-03-05T23:40:35.626Z,99966.91
2023-03-05T23:43:02.936Z,99954.09
2023-03-05T23:45:30.979Z,99954.91
2023-03-05T23:47:58.361Z,99960.00
2023-03-05T23:50:33.065Z,99956.47
2023-03-05T23:53:02.147Z,99952.13
2023-03-05T23:55:41.449Z,99954.81
2023-03-05T23:58:08.533Z,99951.50
